Погода Слипкина неделю

Минская область, Белоруссия

24 - 30 мая
  • 24мая
    Сегодня
    +13°
    +26°
    Ясно и безоблачно
    ВремяПогодаТемператураВлажностьДавлениеВетер, м/сВероятность осадков
    00:00Облачно с прояснениями+16°C78 %755 мм3.8 м/с2 %
    03:00Небольшая облачность+15°C67 %755 мм4.7 м/с2 %
    06:00Практически безоблачно+14°C64 %756 мм4.6 м/с2 %
    09:00Ясно и безоблачно+19°C62 %756 мм5.0 м/с2 %
    12:00Практически безоблачно+23°C55 %757 мм4.8 м/с2 %
    15:00Ясно и безоблачно+25°C46 %756 мм5.7 м/с2 %
    18:00Практически безоблачно+25°C48 %756 мм5.3 м/с2 %
    21:00Практически безоблачно+21°C62 %756 мм3.2 м/с2 %
  • 25мая
    Суббота
    +12°
    +25°
    Облачно с прояснениями
    ВремяПогодаТемператураВлажностьДавлениеВетер, м/сВероятность осадков
    00:00Практически безоблачно+16°C70 %756 мм4.0 м/с2 %
    03:00Ясно и безоблачно+14°C68 %756 мм3.9 м/с2 %
    06:00Ясно и безоблачно+13°C69 %756 мм3.7 м/с2 %
    09:00Ясно и безоблачно+19°C61 %756 мм3.4 м/с2 %
    12:00Практически безоблачно+24°C52 %756 мм3.5 м/с1 %
    15:00Облачно с прояснениями+22°C61 %756 мм3.5 м/с26 %
    18:00Облачно с прояснениями+24°C46 %755 мм4.0 м/с33 %
    21:00Облачно с прояснениями+19°C75 %755 мм0.9 м/с21 %
  • 26мая
    Воскресенье
    +13°
    +25°
    Небольшая облачность
    ВремяПогодаТемператураВлажностьДавлениеВетер, м/сВероятность осадков
    00:00Облачно с прояснениями+15°C88 %754 мм1.8 м/с4 %
    03:00Облачно с прояснениями+13°C92 %755 мм2.3 м/с3 %
    06:00Облачно с прояснениями+13°C78 %755 мм2.1 м/с2 %
    09:00Ясно и безоблачно+19°C59 %756 мм1.7 м/с2 %
    12:00Ясно и безоблачно+24°C37 %756 мм3.9 м/с2 %
    15:00Небольшая облачность+25°C35 %756 мм3.6 м/с2 %
    18:00Практически безоблачно+25°C38 %755 мм3.0 м/с2 %
    21:00Ясно и безоблачно+20°C68 %755 мм2.5 м/с2 %
  • 27мая
    Понедельник
    +13°
    +26°
    Облачно с прояснениями
    ВремяПогодаТемператураВлажностьДавлениеВетер, м/сВероятность осадков
    00:00Небольшая облачность+14°C73 %755 мм2.4 м/с2 %
    03:00Практически безоблачно+15°C65 %755 мм1.2 м/с2 %
    06:00Ясно и безоблачно+14°C76 %755 мм0.9 м/с2 %
    09:00Ясно и безоблачно+20°C57 %756 мм1.2 м/с2 %
    12:00Небольшая облачность+24°C39 %755 мм2.9 м/с2 %
    15:00Облачно с прояснениями+26°C34 %755 мм3.1 м/с2 %
    18:00Ясно и безоблачно+26°C35 %754 мм2.4 м/с18 %
    21:00Небольшая облачность+21°C59 %754 мм2.2 м/с5 %
  • 28мая
    Вторник
    +13°
    +26°
    Практически безоблачно
    ВремяПогодаТемператураВлажностьДавлениеВетер, м/сВероятность осадков
    00:00Ясно и безоблачно+15°C81 %754 мм2.3 м/с2 %
    03:00Ясно и безоблачно+14°C85 %754 мм1.5 м/с2 %
    06:00Ясно и безоблачно+14°C92 %753 мм1.4 м/с2 %
    09:00Ясно и безоблачно+20°C62 %754 мм1.3 м/с2 %
    12:00Ясно и безоблачно+24°C35 %754 мм3.3 м/с5 %
    15:00Практически безоблачно+25°C36 %753 мм3.2 м/с13 %
    18:00Ясно и безоблачно+25°C36 %752 мм2.4 м/с18 %
    21:00Ясно и безоблачно+22°C59 %752 мм2.6 м/с5 %
Мы используем cookies
Соглашаюсь